createdAt,value
2019-04-10T00:00:06.425Z,1011.23
2019-04-10T00:01:08.202Z,1011.20
2019-04-10T00:02:07.014Z,1011.20
2019-04-10T00:03:06.239Z,1011.17
2019-04-10T00:04:07.047Z,1011.25
2019-04-10T00:05:05.997Z,1011.30
2019-04-10T00:06:06.746Z,1011.29
2019-04-10T00:07:12.690Z,1011.38
2019-04-10T00:08:08.135Z,1011.34
2019-04-10T00:09:06.415Z,1011.42
2019-04-10T00:10:05.959Z,1011.40
2019-04-10T00:11:05.928Z,1011.40
2019-04-10T00:12:05.918Z,1011.29
2019-04-10T00:13:06.692Z,1011.33
2019-04-10T00:14:05.896Z,1011.28
2019-04-10T00:15:05.896Z,1011.30
2019-04-10T00:16:05.872Z,1011.32
2019-04-10T00:17:06.845Z,1011.30
2019-04-10T00:18:05.863Z,1011.33
2019-04-10T00:19:06.579Z,1011.29
2019-04-10T00:20:05.871Z,1011.32
2019-04-10T00:21:05.813Z,1011.33
2019-04-10T00:22:06.260Z,1011.29
2019-04-10T00:23:06.786Z,1011.34
2019-04-10T00:24:06.069Z,1011.28
2019-04-10T00:25:05.765Z,1011.31
2019-04-10T00:26:05.775Z,1011.35
2019-04-10T00:27:06.121Z,1011.34
2019-04-10T00:28:05.746Z,1011.36
2019-04-10T00:29:05.821Z,1011.31
2019-04-10T00:30:06.859Z,1011.47
2019-04-10T00:31:05.746Z,1011.41
2019-04-10T00:32:05.767Z,1011.44
2019-04-10T00:33:05.695Z,1011.28
2019-04-10T00:34:05.674Z,1011.31
2019-04-10T00:35:06.482Z,1011.37
2019-04-10T00:36:05.861Z,1011.25
2019-04-10T00:37:05.905Z,1011.28
2019-04-10T00:38:05.627Z,1011.29
2019-04-10T00:39:06.435Z,1011.28
2019-04-10T00:40:05.604Z,1011.23
2019-04-10T00:41:06.005Z,1011.28
2019-04-10T00:42:05.575Z,1011.29
2019-04-10T00:43:06.524Z,1011.29
2019-04-10T00:44:05.816Z,1011.24
2019-04-10T00:45:05.560Z,1011.25
2019-04-10T00:46:06.196Z,1011.30
2019-04-10T00:47:06.526Z,1011.32
2019-04-10T00:48:05.810Z,1011.29
2019-04-10T00:49:05.489Z,1011.29
2019-04-10T00:50:06.434Z,1011.40
2019-04-10T00:51:05.510Z,1011.43
2019-04-10T00:52:06.023Z,1011.45
2019-04-10T00:53:05.450Z,1011.38
2019-04-10T00:54:05.704Z,1011.39
2019-04-10T00:55:05.730Z,1011.45
2019-04-10T00:56:05.469Z,1011.38
2019-04-10T00:57:05.441Z,1011.41
2019-04-10T00:58:05.858Z,1011.38
2019-04-10T00:59:06.002Z,1011.37
2019-04-10T01:00:06.452Z,1011.37
2019-04-10T01:01:05.581Z,1011.43
2019-04-10T01:02:05.377Z,1011.46
2019-04-10T01:03:05.358Z,1011.42
2019-04-10T01:04:06.781Z,1011.39
2019-04-10T01:05:05.325Z,1011.34
2019-04-10T01:06:05.962Z,1011.32
2019-04-10T01:07:05.389Z,1011.31
2019-04-10T01:08:06.489Z,1011.42
2019-04-10T01:09:05.292Z,1011.42
2019-04-10T01:10:06.055Z,1011.38
2019-04-10T01:11:05.257Z,1011.32
2019-04-10T01:12:05.766Z,1011.30
2019-04-10T01:13:05.256Z,1011.42
2019-04-10T01:14:05.492Z,1011.42
2019-04-10T01:15:05.234Z,1011.31
2019-04-10T01:16:05.207Z,1011.32
2019-04-10T01:17:06.212Z,1011.30
2019-04-10T01:18:05.197Z,1011.33
2019-04-10T01:19:05.833Z,1011.32
2019-04-10T01:20:05.172Z,1011.32
2019-04-10T01:21:06.108Z,1011.36
2019-04-10T01:22:05.157Z,1011.27
2019-04-10T01:23:05.842Z,1011.31
2019-04-10T01:24:05.749Z,1011.28
2019-04-10T01:25:06.076Z,1011.21
2019-04-10T01:26:05.264Z,1011.22
2019-04-10T01:27:05.117Z,1011.17
2019-04-10T01:28:05.084Z,1011.27
2019-04-10T01:29:05.180Z,1011.25
2019-04-10T01:30:06.965Z,1011.21
2019-04-10T01:31:05.056Z,1011.24
2019-04-10T01:32:05.708Z,1011.21
2019-04-10T01:33:06.110Z,1011.26
2019-04-10T01:34:05.361Z,1011.24
2019-04-10T01:35:05.777Z,1011.25
2019-04-10T01:36:04.997Z,1011.25
2019-04-10T01:37:04.983Z,1011.21
2019-04-10T01:38:06.387Z,1011.27
2019-04-10T01:39:06.136Z,1011.28
2019-04-10T01:40:04.940Z,1011.29
2019-04-10T01:41:05.751Z,1011.22
2019-04-10T01:42:06.063Z,1011.47
2019-04-10T01:43:11.410Z,1011.32
2019-04-10T01:44:05.908Z,1011.37
2019-04-10T01:45:04.983Z,1011.34
2019-04-10T01:46:04.883Z,1011.39
2019-04-10T01:47:04.858Z,1011.38
2019-04-10T01:48:05.920Z,1011.35
2019-04-10T01:49:05.208Z,1011.43
2019-04-10T01:50:04.836Z,1011.43
2019-04-10T01:51:04.820Z,1011.37
2019-04-10T01:52:04.888Z,1011.25
2019-04-10T01:53:05.618Z,1011.36
2019-04-10T01:54:04.866Z,1011.39
2019-04-10T01:55:17.286Z,1011.36
2019-04-10T01:56:05.781Z,1011.29
2019-04-10T01:57:04.763Z,1011.32
2019-04-10T01:58:05.122Z,1011.31
2019-04-10T01:59:05.615Z,1011.26
2019-04-10T02:00:04.749Z,1011.27
2019-04-10T02:01:04.707Z,1011.34
2019-04-10T02:02:05.153Z,1011.23
2019-04-10T02:03:05.566Z,1011.48
2019-04-10T02:04:04.741Z,1011.46
2019-04-10T02:05:04.667Z,1011.37
2019-04-10T02:06:05.165Z,1011.34
2019-04-10T02:07:05.576Z,1011.31
2019-04-10T02:08:08.992Z,1011.34
2019-04-10T02:09:06.459Z,1011.36
2019-04-10T02:10:04.677Z,1011.32
2019-04-10T02:11:04.860Z,1011.28
2019-04-10T02:12:04.600Z,1011.33
2019-04-10T02:13:05.362Z,1011.27
2019-04-10T02:14:05.629Z,1011.29
2019-04-10T02:15:04.855Z,1011.31
2019-04-10T02:16:04.587Z,1011.32
2019-04-10T02:17:04.546Z,1011.28
2019-04-10T02:18:05.395Z,1011.36
2019-04-10T02:19:04.537Z,1011.33
2019-04-10T02:20:04.921Z,1011.36
2019-04-10T02:21:04.507Z,1011.39
2019-04-10T02:22:04.498Z,1011.36
2019-04-10T02:23:04.478Z,1011.36
2019-04-10T02:24:05.027Z,1011.44
2019-04-10T02:25:05.241Z,1011.38
2019-04-10T02:26:05.360Z,1011.29
2019-04-10T02:27:04.437Z,1011.25
2019-04-10T02:28:04.873Z,1011.33
2019-04-10T02:29:04.444Z,1011.24
2019-04-10T02:30:05.122Z,1011.28
2019-04-10T02:31:04.827Z,1011.30
2019-04-10T02:32:04.707Z,1011.29
2019-04-10T02:33:04.746Z,1011.32
2019-04-10T02:34:05.380Z,1011.33
2019-04-10T02:35:06.120Z,1011.32
2019-04-10T02:36:05.649Z,1011.24
2019-04-10T02:37:04.341Z,1011.37
2019-04-10T02:38:22.159Z,1011.38
2019-04-10T02:39:16.920Z,1011.32
2019-04-10T02:40:07.112Z,1011.52
2019-04-10T02:41:05.871Z,1011.51
2019-04-10T02:42:05.972Z,1011.28
2019-04-10T02:43:05.643Z,1011.30
2019-04-10T02:44:04.889Z,1011.24
2019-04-10T02:45:05.813Z,1011.32
2019-04-10T02:46:04.674Z,1011.26
2019-04-10T02:47:04.547Z,1011.37
2019-04-10T02:48:05.919Z,1011.39
2019-04-10T02:49:04.702Z,1011.42
2019-04-10T02:50:06.140Z,1011.45
2019-04-10T02:51:05.539Z,1011.33
2019-04-10T02:52:04.225Z,1011.31
2019-04-10T02:53:05.559Z,1011.26
2019-04-10T02:54:05.003Z,1011.41
2019-04-10T02:55:05.972Z,1011.30
2019-04-10T02:56:05.416Z,1011.42
2019-04-10T02:57:05.413Z,1011.31
2019-04-10T02:58:05.823Z,1011.36
2019-04-10T02:59:04.985Z,1011.37
2019-04-10T03:00:05.471Z,1011.32
2019-04-10T03:01:04.061Z,1011.32
2019-04-10T03:02:04.326Z,1011.32
2019-04-10T03:03:05.396Z,1011.29
2019-04-10T03:04:05.384Z,1011.26
2019-04-10T03:05:04.585Z,1011.35
2019-04-10T03:06:05.106Z,1011.34
2019-04-10T03:07:04.377Z,1011.34
2019-04-10T03:08:04.872Z,1011.30
2019-04-10T03:09:18.982Z,1011.23
2019-04-10T03:10:15.220Z,1011.33
2019-04-10T03:11:09.339Z,1011.48
2019-04-10T03:12:06.137Z,1011.50
2019-04-10T03:13:04.701Z,1011.33
2019-04-10T03:14:04.611Z,1011.32
2019-04-10T03:15:05.559Z,1011.40
2019-04-10T03:16:05.333Z,1011.35
2019-04-10T03:17:03.900Z,1011.36
2019-04-10T03:18:04.262Z,1011.51
2019-04-10T03:19:03.867Z,1011.54
2019-04-10T03:20:03.881Z,1011.48
2019-04-10T03:21:04.778Z,1011.35
2019-04-10T03:22:03.953Z,1011.37
2019-04-10T03:23:03.844Z,1011.32
2019-04-10T03:24:04.233Z,1011.42
2019-04-10T03:25:04.511Z,1011.33
2019-04-10T03:26:03.794Z,1011.31
2019-04-10T03:27:03.835Z,1011.37
2019-04-10T03:28:04.981Z,1011.37
2019-04-10T03:29:03.756Z,1011.38
2019-04-10T03:30:05.185Z,1011.38
2019-04-10T03:31:05.853Z,1011.33
2019-04-10T03:32:04.592Z,1011.33
2019-04-10T03:33:06.597Z,1011.33
2019-04-10T03:34:08.153Z,1011.25
2019-04-10T03:35:03.691Z,1011.24
2019-04-10T03:36:03.695Z,1011.21
2019-04-10T03:37:04.384Z,1011.19
2019-04-10T03:38:03.675Z,1011.22
2019-04-10T03:39:06.433Z,1011.18
2019-04-10T03:40:03.648Z,1011.20
2019-04-10T03:41:03.991Z,1011.17
2019-04-10T03:42:04.385Z,1011.19
2019-04-10T03:43:03.611Z,1011.17
2019-04-10T03:44:03.662Z,1011.25
2019-04-10T03:45:03.584Z,1011.25
2019-04-10T03:46:03.597Z,1011.24
2019-04-10T03:47:03.572Z,1011.33
2019-04-10T03:48:04.770Z,1011.24
2019-04-10T03:49:03.539Z,1011.25
2019-04-10T03:50:04.573Z,1011.30
2019-04-10T03:51:03.993Z,1011.27
2019-04-10T03:52:03.508Z,1011.30
2019-04-10T03:53:03.506Z,1011.34
2019-04-10T03:54:03.489Z,1011.35
2019-04-10T03:55:03.484Z,1011.34
2019-04-10T03:56:03.475Z,1011.37
2019-04-10T03:57:04.504Z,1011.30
2019-04-10T03:58:03.440Z,1011.36
2019-04-10T03:59:04.136Z,1011.32
2019-04-10T04:00:03.708Z,1011.41
2019-04-10T04:01:03.434Z,1011.41
2019-04-10T04:02:03.412Z,1011.46
2019-04-10T04:03:04.360Z,1011.39
2019-04-10T04:04:03.379Z,1011.57
2019-04-10T04:05:04.336Z,1011.57
2019-04-10T04:06:03.619Z,1011.59
2019-04-10T04:07:03.370Z,1011.58
2019-04-10T04:08:04.168Z,1011.58
2019-04-10T04:09:09.558Z,1011.50
2019-04-10T04:10:04.416Z,1011.41
2019-04-10T04:11:03.303Z,1011.47
2019-04-10T04:12:04.351Z,1011.47
2019-04-10T04:13:04.977Z,1011.52
2019-04-10T04:14:04.037Z,1011.48
2019-04-10T04:15:03.672Z,1011.44
2019-04-10T04:16:03.358Z,1011.37
2019-04-10T04:17:04.020Z,1011.47
2019-04-10T04:18:03.222Z,1011.56
2019-04-10T04:19:03.891Z,1011.56
2019-04-10T04:20:04.351Z,1011.44
2019-04-10T04:21:03.483Z,1011.44
2019-04-10T04:22:04.025Z,1011.54
2019-04-10T04:23:03.464Z,1011.52
2019-04-10T04:24:03.631Z,1011.39
2019-04-10T04:25:03.212Z,1011.47
2019-04-10T04:26:03.146Z,1011.44
2019-04-10T04:27:03.151Z,1011.54
2019-04-10T04:28:03.115Z,1011.57
2019-04-10T04:29:03.110Z,1011.59
2019-04-10T04:30:04.163Z,1011.48
2019-04-10T04:31:03.172Z,1011.48
2019-04-10T04:32:03.074Z,1011.44
2019-04-10T04:33:03.079Z,1011.47
2019-04-10T04:34:03.947Z,1011.59
2019-04-10T04:35:03.043Z,1011.52
2019-04-10T04:36:03.788Z,1011.47
2019-04-10T04:37:03.058Z,1011.48
2019-04-10T04:38:03.018Z,1011.52
2019-04-10T04:39:12.766Z,1011.50
2019-04-10T04:40:04.081Z,1011.44
2019-04-10T04:41:02.970Z,1011.52
2019-04-10T04:42:03.107Z,1011.49
2019-04-10T04:43:03.656Z,1011.53
2019-04-10T04:44:03.881Z,1011.48
2019-04-10T04:45:03.136Z,1011.62
2019-04-10T04:46:03.288Z,1011.48
2019-04-10T04:47:03.417Z,1011.44
2019-04-10T04:48:02.890Z,1011.52
2019-04-10T04:49:02.897Z,1011.53
2019-04-10T04:50:03.541Z,1011.55
2019-04-10T04:51:03.257Z,1011.65
2019-04-10T04:52:02.862Z,1011.64
2019-04-10T04:53:02.842Z,1011.65
2019-04-10T04:54:02.838Z,1011.63
2019-04-10T04:55:03.859Z,1011.50
2019-04-10T04:56:03.802Z,1011.59
2019-04-10T04:57:02.837Z,1011.56
2019-04-10T04:58:02.803Z,1011.59
2019-04-10T04:59:03.618Z,1011.56
2019-04-10T05:00:03.255Z,1011.59
2019-04-10T05:01:02.749Z,1011.72
2019-04-10T05:02:03.430Z,1011.59
2019-04-10T05:03:02.734Z,1011.59
2019-04-10T05:04:02.747Z,1011.65
2019-04-10T05:05:02.708Z,1011.66
2019-04-10T05:06:03.767Z,1011.63
2019-04-10T05:07:02.704Z,1011.64
2019-04-10T05:08:05.161Z,1011.62
2019-04-10T05:09:02.847Z,1011.69
2019-04-10T05:10:02.705Z,1011.71
2019-04-10T05:11:02.637Z,1011.67
2019-04-10T05:12:02.932Z,1011.84
2019-04-10T05:13:02.619Z,1011.80
2019-04-10T05:14:02.816Z,1011.72
2019-04-10T05:15:02.676Z,1011.83
2019-04-10T05:16:02.696Z,1011.81
2019-04-10T05:17:02.584Z,1011.82
2019-04-10T05:18:02.568Z,1011.82
2019-04-10T05:19:02.564Z,1011.83
2019-04-10T05:20:02.967Z,1011.86
2019-04-10T05:21:03.023Z,1011.80
2019-04-10T05:22:02.740Z,1011.84
2019-04-10T05:23:02.517Z,1011.95
2019-04-10T05:24:03.255Z,1011.94
2019-04-10T05:25:03.048Z,1011.99
2019-04-10T05:26:02.557Z,1012.01
2019-04-10T05:27:02.493Z,1011.85
2019-04-10T05:28:03.582Z,1011.89
2019-04-10T05:29:02.714Z,1011.91
2019-04-10T05:30:02.484Z,1011.92
2019-04-10T05:31:03.122Z,1011.87
2019-04-10T05:32:02.450Z,1011.84
2019-04-10T05:33:02.418Z,1011.99
2019-04-10T05:34:03.076Z,1012.02
2019-04-10T05:35:05.208Z,1011.89
2019-04-10T05:36:02.367Z,1011.90
2019-04-10T05:37:03.146Z,1011.96
2019-04-10T05:38:02.591Z,1011.95
2019-04-10T05:39:02.342Z,1011.96
2019-04-10T05:40:03.318Z,1012.13
2019-04-10T05:41:02.312Z,1012.02
2019-04-10T05:42:02.754Z,1012.04
2019-04-10T05:43:02.320Z,1012.06
2019-04-10T05:44:02.823Z,1011.97
2019-04-10T05:45:03.150Z,1011.96
2019-04-10T05:46:02.861Z,1012.00
2019-04-10T05:47:03.385Z,1012.01
2019-04-10T05:48:03.233Z,1012.03
2019-04-10T05:49:02.338Z,1012.17
2019-04-10T05:50:02.236Z,1012.06
2019-04-10T05:51:04.791Z,1012.11
2019-04-10T05:52:02.257Z,1012.18
2019-04-10T05:53:02.374Z,1012.15
2019-04-10T05:54:02.350Z,1012.16
2019-04-10T05:55:02.333Z,1012.20
2019-04-10T05:56:02.148Z,1012.12
2019-04-10T05:57:02.234Z,1012.16
2019-04-10T05:58:02.280Z,1012.05
2019-04-10T05:59:03.022Z,1012.26
2019-04-10T06:00:02.701Z,1012.07
2019-04-10T06:01:02.094Z,1012.07
2019-04-10T06:02:03.079Z,1012.08
2019-04-10T06:03:02.097Z,1012.06
2019-04-10T06:04:03.078Z,1012.02
2019-04-10T06:05:02.353Z,1012.09
2019-04-10T06:06:02.034Z,1012.21
2019-04-10T06:07:03.019Z,1012.15
2019-04-10T06:08:02.062Z,1012.06
2019-04-10T06:09:02.536Z,1012.14
2019-04-10T06:10:05.665Z,1012.01
2019-04-10T06:11:02.976Z,1012.16
2019-04-10T06:12:03.492Z,1012.12
2019-04-10T06:13:02.657Z,1012.05
2019-04-10T06:14:03.146Z,1012.16
2019-04-10T06:15:02.636Z,1012.03
2019-04-10T06:16:01.931Z,1012.04
2019-04-10T06:17:04.104Z,1012.20
2019-04-10T06:18:02.839Z,1012.16
2019-04-10T06:19:01.923Z,1012.04
2019-04-10T06:20:01.892Z,1012.02
2019-04-10T06:21:02.876Z,1012.11
2019-04-10T06:22:02.861Z,1012.00
2019-04-10T06:23:01.860Z,1012.07
2019-04-10T06:24:01.848Z,1012.06
2019-04-10T06:25:03.648Z,1012.04
2019-04-10T06:26:03.394Z,1012.04
2019-04-10T06:27:01.978Z,1012.06
2019-04-10T06:28:01.797Z,1012.06
2019-04-10T06:29:02.405Z,1012.11
2019-04-10T06:30:01.953Z,1012.06
2019-04-10T06:31:01.784Z,1012.12
2019-04-10T06:32:01.759Z,1012.09
2019-04-10T06:33:02.155Z,1012.12
2019-04-10T06:34:01.740Z,1012.17
2019-04-10T06:35:02.015Z,1012.25
2019-04-10T06:36:02.768Z,1012.21
2019-04-10T06:37:01.953Z,1012.19
2019-04-10T06:38:02.330Z,1012.14
2019-04-10T06:39:02.682Z,1012.20
2019-04-10T06:40:10.707Z,1012.22
2019-04-10T06:41:02.644Z,1012.32
2019-04-10T06:42:02.564Z,1012.19
2019-04-10T06:43:01.674Z,1012.25
2019-04-10T06:44:01.658Z,1012.19
2019-04-10T06:45:02.724Z,1012.17
2019-04-10T06:46:01.605Z,1012.27
2019-04-10T06:47:02.177Z,1012.38
2019-04-10T06:48:02.442Z,1012.25
2019-04-10T06:49:03.103Z,1012.19
2019-04-10T06:50:02.590Z,1012.28
2019-04-10T06:51:02.041Z,1012.29
2019-04-10T06:52:01.911Z,1012.29
2019-04-10T06:53:01.519Z,1012.27
2019-04-10T06:54:06.756Z,1012.28
2019-04-10T06:55:03.006Z,1012.28
2019-04-10T06:56:01.491Z,1012.31
2019-04-10T06:57:01.472Z,1012.29
2019-04-10T06:58:02.623Z,1012.24
2019-04-10T06:59:02.504Z,1012.28
2019-04-10T07:00:02.342Z,1012.24
2019-04-10T07:01:01.914Z,1012.29
2019-04-10T07:02:13.964Z,1012.37
2019-04-10T07:03:03.111Z,1012.39
2019-04-10T07:04:06.501Z,1012.44
2019-04-10T07:05:07.067Z,1012.27
2019-04-10T07:06:09.649Z,1012.35
2019-04-10T07:07:07.798Z,1012.27
2019-04-10T07:08:11.461Z,1012.28
2019-04-10T07:09:03.278Z,1012.31
2019-04-10T07:10:02.323Z,1012.34
2019-04-10T07:11:05.972Z,1012.38
2019-04-10T07:12:04.211Z,1012.45
2019-04-10T07:13:04.284Z,1012.44
2019-04-10T07:14:02.275Z,1012.31
2019-04-10T07:15:02.343Z,1012.38
2019-04-10T07:16:02.163Z,1012.35
2019-04-10T07:17:05.344Z,1012.40
2019-04-10T07:18:03.047Z,1012.38
2019-04-10T07:19:04.328Z,1012.43
2019-04-10T07:20:02.226Z,1012.56
2019-04-10T07:21:01.985Z,1012.44
2019-04-10T07:22:02.025Z,1012.41
2019-04-10T07:23:01.180Z,1012.59
2019-04-10T07:24:04.986Z,1012.57
2019-04-10T07:25:02.828Z,1012.44
2019-04-10T07:26:01.838Z,1012.53
2019-04-10T07:27:03.403Z,1012.55
2019-04-10T07:28:01.397Z,1012.38
2019-04-10T07:29:01.117Z,1012.38
2019-04-10T07:30:01.610Z,1012.50
2019-04-10T07:31:04.985Z,1012.41
2019-04-10T07:32:04.776Z,1012.39
2019-04-10T07:33:02.074Z,1012.47
2019-04-10T07:34:01.397Z,1012.41
2019-04-10T07:35:01.871Z,1012.37
2019-04-10T07:36:04.190Z,1012.48
2019-04-10T07:37:02.306Z,1012.50
2019-04-10T07:38:01.372Z,1012.49
2019-04-10T07:39:01.494Z,1012.47
2019-04-10T07:40:04.116Z,1012.53
2019-04-10T07:41:01.006Z,1012.47
2019-04-10T07:42:01.987Z,1012.46
2019-04-10T07:43:02.053Z,1012.60
2019-04-10T07:44:01.713Z,1012.57
2019-04-10T07:45:00.944Z,1012.59
2019-04-10T07:46:00.964Z,1012.56
2019-04-10T07:47:00.991Z,1012.55
2019-04-10T07:48:00.919Z,1012.49
2019-04-10T07:49:00.937Z,1012.57
2019-04-10T07:50:02.170Z,1012.60
2019-04-10T07:51:00.870Z,1012.65
2019-04-10T07:52:02.213Z,1012.58
2019-04-10T07:53:01.906Z,1012.64
2019-04-10T07:54:01.844Z,1012.62
2019-04-10T07:55:01.030Z,1012.58
2019-04-10T07:56:06.506Z,1012.60
2019-04-10T07:57:02.137Z,1012.60
2019-04-10T07:58:00.796Z,1012.61
2019-04-10T07:59:00.793Z,1012.62
2019-04-10T08:00:00.945Z,1012.63
2019-04-10T08:01:01.008Z,1012.57
2019-04-10T08:02:00.778Z,1012.64
2019-04-10T08:03:00.751Z,1012.64
2019-04-10T08:04:01.806Z,1012.60
2019-04-10T08:05:00.719Z,1012.66
2019-04-10T08:06:00.704Z,1012.66
2019-04-10T08:07:00.989Z,1012.68
2019-04-10T08:08:00.989Z,1012.73
2019-04-10T08:09:01.295Z,1012.82
2019-04-10T08:10:01.445Z,1012.85
2019-04-10T08:11:01.606Z,1012.74
2019-04-10T08:12:00.855Z,1012.80
2019-04-10T08:13:00.623Z,1012.73
2019-04-10T08:14:01.109Z,1012.74
2019-04-10T08:15:00.722Z,1012.75
2019-04-10T08:16:00.711Z,1012.90
2019-04-10T08:17:00.613Z,1012.76
2019-04-10T08:18:00.607Z,1012.75
2019-04-10T08:19:00.557Z,1012.71
2019-04-10T08:20:01.575Z,1012.76
2019-04-10T08:21:00.537Z,1012.76
2019-04-10T08:22:01.218Z,1012.77
2019-04-10T08:23:01.499Z,1012.74
2019-04-10T08:24:00.519Z,1012.74
2019-04-10T08:25:00.494Z,1012.81
2019-04-10T08:26:00.474Z,1012.75
2019-04-10T08:27:01.194Z,1012.81
2019-04-10T08:28:00.710Z,1012.86
2019-04-10T08:29:01.522Z,1012.96
2019-04-10T08:30:01.206Z,1012.99
2019-04-10T08:31:01.029Z,1012.90
2019-04-10T08:32:01.339Z,1012.93
2019-04-10T08:33:02.409Z,1012.88
2019-04-10T08:34:01.108Z,1012.81
2019-04-10T08:35:00.426Z,1012.85
2019-04-10T08:36:01.146Z,1012.84
2019-04-10T08:37:00.357Z,1012.83
2019-04-10T08:38:01.359Z,1012.92
2019-04-10T08:39:00.340Z,1013.01
2019-04-10T08:40:00.338Z,1012.99
2019-04-10T08:41:00.732Z,1012.85
2019-04-10T08:42:00.299Z,1012.85
2019-04-10T08:43:00.323Z,1012.83
2019-04-10T08:44:00.282Z,1012.96
2019-04-10T08:45:00.802Z,1012.83
2019-04-10T08:46:01.743Z,1012.85
2019-04-10T08:47:00.250Z,1012.81
2019-04-10T08:48:01.340Z,1012.84
2019-04-10T08:49:00.293Z,1013.00
2019-04-10T08:50:01.365Z,1012.92
2019-04-10T08:51:01.051Z,1013.00
2019-04-10T08:52:00.191Z,1012.85
2019-04-10T08:53:00.180Z,1012.97
2019-04-10T08:54:00.645Z,1012.92
2019-04-10T08:55:00.150Z,1012.80
2019-04-10T08:56:00.145Z,1012.86
2019-04-10T08:57:01.028Z,1012.80
2019-04-10T08:58:00.761Z,1012.96
2019-04-10T08:59:00.352Z,1012.85
2019-04-10T09:00:00.426Z,1012.80
2019-04-10T09:01:00.738Z,1012.79
2019-04-10T09:02:00.086Z,1012.83
2019-04-10T09:03:00.318Z,1012.90
2019-04-10T09:04:00.095Z,1012.90
2019-04-10T09:05:00.056Z,1012.82
2019-04-10T09:06:00.954Z,1012.82
2019-04-10T09:07:03.492Z,1012.89
2019-04-10T09:08:00.305Z,1012.87
2019-04-10T09:09:01.315Z,1012.88
2019-04-10T09:10:00.027Z,1012.99
2019-04-10T09:11:00.941Z,1012.88
2019-04-10T09:11:59.963Z,1012.90
2019-04-10T09:13:00.076Z,1012.88
2019-04-10T09:14:01.003Z,1012.89
2019-04-10T09:14:59.955Z,1012.96
2019-04-10T09:16:00.446Z,1012.81
2019-04-10T09:17:00.743Z,1012.88
2019-04-10T09:17:59.899Z,1012.98
2019-04-10T09:18:59.897Z,1012.98
2019-04-10T09:20:00.557Z,1012.86
2019-04-10T09:20:59.890Z,1012.82
2019-04-10T09:21:59.866Z,1012.80
2019-04-10T09:23:15.541Z,1012.82
2019-04-10T09:24:00.840Z,1012.83
2019-04-10T09:25:00.708Z,1012.79
2019-04-10T09:25:59.826Z,1012.78
2019-04-10T09:27:00.544Z,1012.82
2019-04-10T09:28:00.192Z,1012.77
2019-04-10T09:28:59.778Z,1012.78
2019-04-10T09:30:00.437Z,1012.81
2019-04-10T09:30:59.755Z,1012.89
2019-04-10T09:31:59.765Z,1012.81
2019-04-10T09:33:00.688Z,1012.76
2019-04-10T09:33:59.764Z,1012.75
2019-04-10T09:35:00.337Z,1012.72
2019-04-10T09:36:00.612Z,1012.91
2019-04-10T09:36:59.965Z,1012.85
2019-04-10T09:37:59.694Z,1012.93
2019-04-10T09:38:59.682Z,1012.86
2019-04-10T09:40:00.127Z,1012.77
2019-04-10T09:40:59.663Z,1012.76
2019-04-10T09:42:00.945Z,1012.92
2019-04-10T09:42:59.801Z,1012.82
2019-04-10T09:44:00.292Z,1012.77
2019-04-10T09:45:00.421Z,1012.77
2019-04-10T09:46:00.023Z,1012.84
2019-04-10T09:47:00.007Z,1012.79
2019-04-10T09:48:00.008Z,1012.83
2019-04-10T09:49:00.483Z,1012.69
2019-04-10T09:49:59.769Z,1012.69
2019-04-10T09:51:00.258Z,1012.75
2019-04-10T09:52:00.606Z,1012.74
2019-04-10T09:53:00.015Z,1012.80
2019-04-10T09:53:59.524Z,1012.74
2019-04-10T09:54:59.654Z,1012.72
2019-04-10T09:55:59.514Z,1012.86
2019-04-10T09:56:59.475Z,1012.82
2019-04-10T09:58:00.174Z,1012.84
2019-04-10T09:58:59.455Z,1012.67
2019-04-10T09:59:59.439Z,1012.71
2019-04-10T10:01:01.398Z,1012.80
2019-04-10T10:02:00.408Z,1012.73
2019-04-10T10:02:59.439Z,1012.80
2019-04-10T10:03:59.412Z,1012.79
2019-04-10T10:04:59.398Z,1012.80
2019-04-10T10:06:00.268Z,1012.82
2019-04-10T10:06:59.805Z,1012.80
2019-04-10T10:08:00.195Z,1012.74
2019-04-10T10:09:00.343Z,1012.74
2019-04-10T10:10:00.842Z,1012.70
2019-04-10T10:10:59.726Z,1012.68
2019-04-10T10:11:59.310Z,1012.77
2019-04-10T10:12:59.310Z,1012.70
2019-04-10T10:13:59.290Z,1012.77
2019-04-10T10:15:00.180Z,1012.77
2019-04-10T10:15:59.280Z,1012.72
2019-04-10T10:17:00.163Z,1012.69
2019-04-10T10:17:59.293Z,1012.90
2019-04-10T10:18:59.476Z,1012.75
2019-04-10T10:19:59.552Z,1012.70
2019-04-10T10:20:59.864Z,1012.69
2019-04-10T10:22:01.862Z,1012.71
2019-04-10T10:23:01.204Z,1012.78
2019-04-10T10:24:00.268Z,1012.69
2019-04-10T10:24:59.414Z,1012.70
2019-04-10T10:25:59.606Z,1012.85
2019-04-10T10:26:59.812Z,1012.69
2019-04-10T10:27:59.133Z,1012.73
2019-04-10T10:28:59.119Z,1012.81
2019-04-10T10:29:59.965Z,1012.75
2019-04-10T10:30:59.943Z,1012.68
2019-04-10T10:32:00.295Z,1012.72
2019-04-10T10:32:59.378Z,1012.69
2019-04-10T10:33:59.081Z,1012.65
2019-04-10T10:34:59.071Z,1012.67
2019-04-10T10:35:59.810Z,1012.73
2019-04-10T10:37:00.038Z,1012.81
2019-04-10T10:37:59.022Z,1012.76
2019-04-10T10:39:06.886Z,1012.79
2019-04-10T10:40:00.262Z,1012.77
2019-04-10T10:40:59.162Z,1012.69
2019-04-10T10:41:58.992Z,1012.64
2019-04-10T10:43:00.242Z,1012.72
2019-04-10T10:43:58.951Z,1012.81
2019-04-10T10:44:58.970Z,1012.70
2019-04-10T10:45:59.016Z,1012.78
2019-04-10T10:46:59.934Z,1012.72
2019-04-10T10:47:58.906Z,1012.81
2019-04-10T10:49:00.013Z,1012.82
2019-04-10T10:49:59.090Z,1012.72
2019-04-10T10:50:58.870Z,1012.68
2019-04-10T10:51:59.436Z,1012.67
2019-04-10T10:52:59.754Z,1012.70
2019-04-10T10:54:01.418Z,1012.78
2019-04-10T10:54:59.047Z,1012.61
2019-04-10T10:55:59.894Z,1012.61
2019-04-10T10:56:58.829Z,1012.74
2019-04-10T10:57:59.660Z,1012.78
2019-04-10T10:58:59.030Z,1012.65
2019-04-10T10:59:59.806Z,1012.60
2019-04-10T11:00:59.758Z,1012.66
2019-04-10T11:01:58.792Z,1012.72
2019-04-10T11:02:58.746Z,1012.62
2019-04-10T11:03:58.752Z,1012.69
2019-04-10T11:05:02.201Z,1012.67
2019-04-10T11:06:00.476Z,1012.64
2019-04-10T11:07:00.970Z,1012.63
2019-04-10T11:07:59.874Z,1012.73
2019-04-10T11:08:59.405Z,1012.65
2019-04-10T11:09:58.663Z,1012.59
2019-04-10T11:10:59.388Z,1012.59
2019-04-10T11:11:59.883Z,1012.58
2019-04-10T11:12:58.636Z,1012.74
2019-04-10T11:13:58.959Z,1012.67
2019-04-10T11:14:59.453Z,1012.53
2019-04-10T11:16:03.171Z,1012.68
2019-04-10T11:16:59.602Z,1012.51
2019-04-10T11:17:58.588Z,1012.53
2019-04-10T11:18:58.991Z,1012.60
2019-04-10T11:19:59.500Z,1012.53
2019-04-10T11:21:04.140Z,1012.58
2019-04-10T11:21:59.698Z,1012.56
2019-04-10T11:23:00.223Z,1012.54
2019-04-10T11:23:58.536Z,1012.57
2019-04-10T11:24:59.697Z,1012.55
2019-04-10T11:25:58.490Z,1012.50
2019-04-10T11:26:58.498Z,1012.57
2019-04-10T11:27:58.564Z,1012.57
2019-04-10T11:28:58.459Z,1012.59
2019-04-10T11:30:00.822Z,1012.62
2019-04-10T11:30:58.692Z,1012.71
2019-04-10T11:31:59.909Z,1012.68
2019-04-10T11:32:58.433Z,1012.61
2019-04-10T11:33:58.402Z,1012.59
2019-04-10T11:34:59.028Z,1012.65
2019-04-10T11:36:00.102Z,1012.52
2019-04-10T11:37:16.620Z,1012.61
2019-04-10T11:38:01.039Z,1012.57
2019-04-10T11:39:10.576Z,1012.65
2019-04-10T11:40:01.255Z,1012.53
2019-04-10T11:41:00.093Z,1012.54
2019-04-10T11:41:58.874Z,1012.56
2019-04-10T11:43:00.163Z,1012.66
2019-04-10T11:43:58.302Z,1012.58
2019-04-10T11:44:59.352Z,1012.60
2019-04-10T11:46:02.108Z,1012.59
2019-04-10T11:46:58.772Z,1012.68
2019-04-10T11:47:58.965Z,1012.69
2019-04-10T11:48:58.230Z,1012.70
2019-04-10T11:49:59.358Z,1012.57
2019-04-10T11:50:59.691Z,1012.62
2019-04-10T11:52:00.002Z,1012.75
2019-04-10T11:53:00.310Z,1012.63
2019-04-10T11:53:59.172Z,1012.64
2019-04-10T11:55:08.740Z,1012.67
2019-04-10T11:56:02.859Z,1012.52
2019-04-10T11:57:02.879Z,1012.55
2019-04-10T11:58:00.016Z,1012.53
2019-04-10T11:58:59.170Z,1012.53
2019-04-10T12:00:01.134Z,1012.66
2019-04-10T12:01:00.144Z,1012.62
2019-04-10T12:02:00.723Z,1012.51
2019-04-10T12:03:00.780Z,1012.60
2019-04-10T12:03:58.476Z,1012.68
2019-04-10T12:05:03.446Z,1012.50